Time;durP1;ratioP1;P1;durP2;ratioP2;P2;SDS_P1;SDS_P2;PMS_P1;PMS_P2;Temp;Humidity;BMP_temperature;BMP_pressure;BME280_temperature;BME280_humidity;BME280_pressure;Samples;Min_cycle;Max_cycle;Signal;HPM_P1;HPM_P2
2021/12/06 00:00:24;;;;;;;4.55;4.25;;;;;;;;;;4775969;29;32417;-66
2021/12/06 00:02:54;;;;;;;4.97;4.60;;;;;;;;;;4775646;29;35484;-66
2021/12/06 00:05:22;;;;;;;6.95;4.55;;;;;;;;;;4775748;29;32407;-66
2021/12/06 00:07:49;;;;;;;5.05;4.65;;;;;;;;;;4775807;29;32207;-67
2021/12/06 00:10:16;;;;;;;4.15;3.85;;;;;;;;;;4775951;29;32357;-68
2021/12/06 00:12:44;;;;;;;4.53;4.22;;;;;;;;;;4775742;29;32381;-67
2021/12/06 00:15:12;;;;;;;5.15;4.30;;;;;;;;;;4789248;29;35800;-67
2021/12/06 00:17:39;;;;;;;4.50;4.18;;;;;;;;;;4795519;29;32580;-68
2021/12/06 00:20:10;;;;;;;4.50;4.15;;;;;;;;;;4793472;29;32495;-69
2021/12/06 00:22:37;;;;;;;4.47;4.18;;;;;;;;;;4792636;29;32389;-68
2021/12/06 00:25:05;;;;;;;4.30;4.00;;;;;;;;;;4791029;29;34204;-68
2021/12/06 00:27:32;;;;;;;4.47;4.18;;;;;;;;;;4775498;29;32675;-67
2021/12/06 00:30:00;;;;;;;4.70;4.18;;;;;;;;;;4775679;29;32511;-67
2021/12/06 00:32:26;;;;;;;4.20;3.90;;;;;;;;;;4775595;29;32637;-66
2021/12/06 00:34:53;;;;;;;4.38;4.07;;;;;;;;;;4775646;29;32568;-68
2021/12/06 00:37:30;;;;;;;5.28;4.00;;;;;;;;;;4775247;29;34436;-68
2021/12/06 00:40:01;;;;;;;4.07;3.70;;;;;;;;;;4775727;29;32426;-67
2021/12/06 00:42:33;;;;;;;4.57;4.28;;;;;;;;;;4775742;29;32559;-67
2021/12/06 00:45:00;;;;;;;;;;;;;;;;;;4789047;29;32317;-67
2021/12/06 00:47:27;;;;;;;3.90;3.60;;;;;;;;;;4793739;29;34041;-67
2021/12/06 00:49:54;;;;;;;4.03;3.72;;;;;;;;;;4793423;29;32639;-68
2021/12/06 00:52:22;;;;;;;4.45;4.05;;;;;;;;;;4793548;29;32325;-68
2021/12/06 00:54:50;;;;;;;4.18;3.88;;;;;;;;;;4793570;29;32313;-67
2021/12/06 00:57:17;;;;;;;4.20;3.90;;;;;;;;;;4793841;29;32476;-68
2021/12/06 00:59:45;;;;;;;4.15;3.85;;;;;;;;;;4793598;29;34375;-68
2021/12/06 01:02:14;;;;;;;4.55;4.25;;;;;;;;;;4793464;29;32493;-68
2021/12/06 01:04:42;;;;;;;3.85;3.65;;;;;;;;;;4793437;29;32445;-68
2021/12/06 01:07:09;;;;;;;3.55;3.33;;;;;;;;;;4793659;29;32151;-66
2021/12/06 01:09:36;;;;;;;3.70;3.40;;;;;;;;;;4792774;29;35457;-68
2021/12/06 01:12:04;;;;;;;4.03;3.83;;;;;;;;;;4792727;29;32478;-67
2021/12/06 01:14:31;;;;;;;4.30;3.90;;;;;;;;;;4793273;29;32214;-67
2021/12/06 01:16:58;;;;;;;3.83;3.53;;;;;;;;;;4792872;29;32381;-69
2021/12/06 01:19:29;;;;;;;4.28;3.97;;;;;;;;;;4793479;29;32486;-68
2021/12/06 01:22:25;;;;;;;4.53;4.13;;;;;;;;;;4784199;29;34906;-66
2021/12/06 01:24:55;;;;;;;3.58;3.38;;;;;;;;;;4773371;29;32475;-67
2021/12/06 01:27:49;;;;;;;3.75;3.55;;;;;;;;;;4774799;29;32352;-66
2021/12/06 01:41:04;;;;;;;3.17;2.97;;;;;;;;;;4774797;29;32424;-68
2021/12/06 01:43:30;;;;;;;3.35;3.08;;;;;;;;;;4774370;29;32443;-67
2021/12/06 01:45:57;;;;;;;3.40;3.20;;;;;;;;;;4774518;29;35672;-68
2021/12/06 01:48:24;;;;;;;3.42;3.22;;;;;;;;;;4774863;29;32625;-68
2021/12/06 01:50:52;;;;;;;3.38;3.17;;;;;;;;;;4774610;29;32359;-68
2021/12/06 01:53:19;;;;;;;3.42;3.22;;;;;;;;;;4774984;29;32420;-67
2021/12/06 01:55:45;;;;;;;3.42;3.22;;;;;;;;;;4774503;29;34177;-67
2021/12/06 01:58:12;;;;;;;3.75;3.45;;;;;;;;;;4774702;29;32424;-67
2021/12/06 02:00:44;;;;;;;3.10;2.90;;;;;;;;;;4774518;29;32442;-67
2021/12/06 02:03:10;;;;;;;;;;;;;;;;;;4774634;29;32447;-67
2021/12/06 02:05:39;;;;;;;3.10;2.90;;;;;;;;;;4774788;29;32411;-68
2021/12/06 02:08:08;;;;;;;3.05;2.85;;;;;;;;;;4774479;29;34303;-67
2021/12/06 02:10:36;;;;;;;3.05;2.85;;;;;;;;;;4774271;29;32417;-67
2021/12/06 02:13:03;;;;;;;3.00;2.80;;;;;;;;;;4774442;29;32281;-67
2021/12/06 02:15:43;;;;;;;3.05;2.85;;;;;;;;;;4774055;29;32305;-67
2021/12/06 02:18:28;;;;;;;2.92;2.83;;;;;;;;;;4774629;29;34081;-67
2021/12/06 02:21:09;;;;;;;3.00;2.80;;;;;;;;;;4773559;29;32814;-67
2021/12/06 02:23:35;;;;;;;3.42;3.13;;;;;;;;;;4774401;29;32268;-67
2021/12/06 02:26:03;;;;;;;2.63;2.38;;;;;;;;;;4774265;29;32428;-66
2021/12/06 02:28:29;;;;;;;2.88;2.67;;;;;;;;;;4788167;29;32290;-66
2021/12/06 02:30:56;;;;;;;3.00;2.80;;;;;;;;;;4792089;29;34208;-67
2021/12/06 02:33:24;;;;;;;3.03;2.83;;;;;;;;;;4792364;29;32583;-67
2021/12/06 02:35:52;;;;;;;3.00;2.80;;;;;;;;;;4792200;29;32412;-66
2021/12/06 02:38:21;;;;;;;2.70;2.50;;;;;;;;;;4792264;29;32522;-65
2021/12/06 02:40:48;;;;;;;3.40;3.10;;;;;;;;;;4788872;29;35015;-66
2021/12/06 02:43:15;;;;;;;3.28;3.08;;;;;;;;;;4784688;29;32709;-67
2021/12/06 02:45:42;;;;;;;3.28;3.08;;;;;;;;;;4782921;29;32118;-66
2021/12/06 02:48:11;;;;;;;3.05;2.85;;;;;;;;;;4781535;29;32516;-68
2021/12/06 02:50:47;;;;;;;3.50;3.20;;;;;;;;;;4776474;29;32313;-67
2021/12/06 02:53:14;;;;;;;3.53;3.28;;;;;;;;;;4775734;29;34259;-70
2021/12/06 02:55:43;;;;;;;3.47;3.28;;;;;;;;;;4774203;29;32619;-69
2021/12/06 02:58:18;;;;;;;3.40;3.20;;;;;;;;;;4773752;29;32455;-65
2021/12/06 03:00:51;;;;;;;3.13;2.92;;;;;;;;;;4773403;29;32391;-65
2021/12/06 03:03:18;;;;;;;3.88;3.58;;;;;;;;;;4771998;29;34784;-67
2021/12/06 03:05:46;;;;;;;3.58;3.38;;;;;;;;;;4779472;29;32423;-67
2021/12/06 03:08:13;;;;;;;3.95;3.67;;;;;;;;;;4500802;29;32416;-67
2021/12/06 03:10:39;;;;;;;3.30;3.00;;;;;;;;;;4800116;29;32481;-66
2021/12/06 03:13:07;;;;;;;4.05;3.75;;;;;;;;;;4809866;29;32440;-67
2021/12/06 03:15:34;;;;;;;3.65;3.45;;;;;;;;;;4808937;29;34916;-67
2021/12/06 03:18:01;;;;;;;4.65;3.78;;;;;;;;;;4809125;29;32445;-68
2021/12/06 03:20:27;;;;;;;6.47;4.00;;;;;;;;;;4809134;29;32228;-68
2021/12/06 03:22:54;;;;;;;3.33;3.10;;;;;;;;;;4809298;29;32293;-68
2021/12/06 03:25:21;;;;;;;3.72;3.42;;;;;;;;;;4809406;29;34824;-67
2021/12/06 03:27:48;;;;;;;3.30;3.10;;;;;;;;;;4809259;29;32395;-68
2021/12/06 03:30:17;;;;;;;3.90;3.50;;;;;;;;;;4791349;29;32495;-65
2021/12/06 03:32:44;;;;;;;3.63;3.28;;;;;;;;;;4792029;29;32708;-66
2021/12/06 03:35:12;;;;;;;4.43;2.92;;;;;;;;;;4794661;29;32305;-66
2021/12/06 03:37:39;;;;;;;2.90;2.70;;;;;;;;;;4793817;29;34726;-66
2021/12/06 03:40:07;;;;;;;4.30;3.38;;;;;;;;;;4792705;29;32486;-65
2021/12/06 03:42:34;;;;;;;3.63;3.42;;;;;;;;;;4792910;29;32639;-64
2021/12/06 03:45:05;;;;;;;3.47;3.20;;;;;;;;;;4793597;29;33041;-65
2021/12/06 03:47:33;;;;;;;3.35;3.15;;;;;;;;;;4793499;29;34517;-66
2021/12/06 03:50:01;;;;;;;3.63;3.38;;;;;;;;;;4782446;29;32545;-65
2021/12/06 03:52:28;;;;;;;3.45;3.25;;;;;;;;;;4775708;29;32388;-65
2021/12/06 03:54:56;;;;;;;3.92;3.63;;;;;;;;;;4788679;29;32580;-65
2021/12/06 03:57:23;;;;;;;4.10;3.80;;;;;;;;;;4790487;29;32487;-66
2021/12/06 03:59:52;;;;;;;3.92;3.63;;;;;;;;;;4792909;29;34216;-66
2021/12/06 04:02:21;;;;;;;4.03;3.83;;;;;;;;;;4793636;29;32490;-65
2021/12/06 04:04:50;;;;;;;4.95;4.55;;;;;;;;;;4794256;29;32412;-65
2021/12/06 04:07:17;;;;;;;4.95;4.55;;;;;;;;;;4793876;29;32370;-65
2021/12/06 04:09:43;;;;;;;5.63;5.22;;;;;;;;;;4793291;29;35068;-65
2021/12/06 04:12:11;;;;;;;6.22;5.22;;;;;;;;;;4794068;29;32371;-65
2021/12/06 04:14:39;;;;;;;6.45;5.82;;;;;;;;;;4793744;29;32643;-65
2021/12/06 04:17:06;;;;;;;7.00;6.40;;;;;;;;;;4794005;29;32485;-66
2021/12/06 04:19:32;;;;;;;7.47;6.82;;;;;;;;;;4793857;29;32148;-66
2021/12/06 04:22:01;;;;;;;7.20;6.53;;;;;;;;;;4793194;29;35112;-65
2021/12/06 04:24:28;;;;;;;9.65;7.13;;;;;;;;;;4640314;29;32781;-66
2021/12/06 04:26:55;;;;;;;7.93;7.22;;;;;;;;;;4785648;29;32812;-66
2021/12/06 04:29:21;;;;;;;8.23;7.53;;;;;;;;;;4786390;29;32410;-65
2021/12/06 04:31:53;;;;;;;8.85;6.82;;;;;;;;;;4785482;29;34996;-65
2021/12/06 04:34:21;;;;;;;7.65;6.45;;;;;;;;;;4785061;29;32970;-66
2021/12/06 04:36:49;;;;;;;6.80;6.20;;;;;;;;;;4784359;29;32384;-66
2021/12/06 04:39:19;;;;;;;9.88;6.68;;;;;;;;;;4782764;29;32432;-66
2021/12/06 04:41:46;;;;;;;7.78;5.72;;;;;;;;;;4784102;29;32247;-66
2021/12/06 04:44:13;;;;;;;7.53;5.80;;;;;;;;;;4657740;29;34174;-66
2021/12/06 04:46:40;;;;;;;7.32;6.72;;;;;;;;;;4780664;29;32382;-66
2021/12/06 04:49:07;;;;;;;8.82;7.05;;;;;;;;;;4784580;29;32395;-67
2021/12/06 04:51:36;;;;;;;8.00;7.32;;;;;;;;;;4785758;29;32403;-66
2021/12/06 04:54:03;;;;;;;9.27;7.82;;;;;;;;;;4784886;29;34044;-66
2021/12/06 04:56:35;;;;;;;8.73;7.93;;;;;;;;;;4782346;29;32332;-66
2021/12/06 04:59:10;;;;;;;8.93;7.88;;;;;;;;;;4777491;29;32325;-66
2021/12/06 05:01:37;;;;;;;11.55;8.10;;;;;;;;;;4784844;29;32220;-64
2021/12/06 05:04:08;;;;;;;14.43;7.38;;;;;;;;;;4787425;29;33229;-65
2021/12/06 05:06:37;;;;;;;9.67;7.13;;;;;;;;;;4792422;29;34915;-66
2021/12/06 05:09:10;;;;;;;7.78;7.00;;;;;;;;;;4790708;29;32399;-65
2021/12/06 05:11:38;;;;;;;7.10;6.45;;;;;;;;;;4793383;29;32324;-66
2021/12/06 05:14:05;;;;;;;7.32;6.60;;;;;;;;;;4793037;29;32314;-66
2021/12/06 05:16:34;;;;;;;8.40;7.07;;;;;;;;;;4793068;29;35781;-66
2021/12/06 05:19:02;;;;;;;7.72;7.00;;;;;;;;;;4792644;29;32281;-65
2021/12/06 05:21:29;;;;;;;8.15;7.55;;;;;;;;;;4792670;29;32347;-65
2021/12/06 05:23:55;;;;;;;8.73;8.02;;;;;;;;;;4792944;29;32400;-66
2021/12/06 05:26:22;;;;;;;13.73;8.00;;;;;;;;;;4793307;29;32396;-65
2021/12/06 05:28:54;;;;;;;10.93;8.35;;;;;;;;;;4793199;29;34322;-66
2021/12/06 05:31:22;;;;;;;9.45;7.38;;;;;;;;;;4793186;29;32308;-66
2021/12/06 05:33:54;;;;;;;7.80;7.25;;;;;;;;;;4792771;29;32478;-65
2021/12/06 05:36:21;;;;;;;8.43;7.70;;;;;;;;;;4792962;29;32381;-65
2021/12/06 05:38:49;;;;;;;7.28;6.57;;;;;;;;;;4792933;29;34762;-65
2021/12/06 05:41:16;;;;;;;8.18;6.80;;;;;;;;;;4792847;29;32474;-66
2021/12/06 05:43:43;;;;;;;7.55;6.95;;;;;;;;;;4792628;29;32371;-65
2021/12/06 05:46:11;;;;;;;7.32;6.82;;;;;;;;;;4792285;29;32406;-65
2021/12/06 05:48:38;;;;;;;7.80;6.93;;;;;;;;;;4793049;29;32597;-65
2021/12/06 05:51:05;;;;;;;8.48;7.65;;;;;;;;;;4792233;29;34131;-65
2021/12/06 05:53:31;;;;;;;12.65;7.72;;;;;;;;;;4790588;29;32770;-65
2021/12/06 05:55:58;;;;;;;12.07;9.65;;;;;;;;;;4777028;29;32467;-64
2021/12/06 05:58:27;;;;;;;17.00;10.80;;;;;;;;;;4654180;29;32300;-64
2021/12/06 06:00:54;;;;;;;17.38;12.38;;;;;;;;;;4771228;29;34289;-64
2021/12/06 06:03:23;;;;;;;21.30;12.60;;;;;;;;;;4772230;29;32494;-65
2021/12/06 06:05:51;;;;;;;15.75;10.68;;;;;;;;;;4772996;29;32512;-64
2021/12/06 06:08:18;;;;;;;10.13;9.23;;;;;;;;;;4775679;29;32445;-64
2021/12/06 06:10:47;;;;;;;16.05;9.18;;;;;;;;;;4786220;29;32600;-65
2021/12/06 06:13:14;;;;;;;7.60;7.10;;;;;;;;;;4784253;29;32588;-65
2021/12/06 06:15:42;;;;;;;8.02;7.30;;;;;;;;;;4774149;29;32274;-65
2021/12/06 06:18:09;;;;;;;12.93;6.38;;;;;;;;;;4773229;29;32449;-64
2021/12/06 06:20:41;;;;;;;5.75;5.25;;;;;;;;;;4773751;29;32541;-65
2021/12/06 06:23:08;;;;;;;5.40;5.00;;;;;;;;;;4773278;29;34238;-65
2021/12/06 06:25:35;;;;;;;5.32;4.82;;;;;;;;;;4784826;29;32404;-65
2021/12/06 06:28:03;;;;;;;6.18;5.07;;;;;;;;;;4791953;29;32723;-64
2021/12/06 06:30:30;;;;;;;5.38;4.97;;;;;;;;;;4777259;29;32468;-64
2021/12/06 06:32:57;;;;;;;4.80;4.40;;;;;;;;;;4773138;29;32417;-65
2021/12/06 06:35:24;;;;;;;5.30;4.80;;;;;;;;;;4772933;29;32607;-65
2021/12/06 06:37:53;;;;;;;4.65;4.25;;;;;;;;;;4772365;29;32513;-64
2021/12/06 06:40:20;;;;;;;10.02;4.50;;;;;;;;;;4772515;29;32545;-65
2021/12/06 06:42:47;;;;;;;4.88;4.50;;;;;;;;;;4772895;29;32555;-65
2021/12/06 06:45:17;;;;;;;4.78;4.47;;;;;;;;;;4772129;29;34459;-64
2021/12/06 06:47:45;;;;;;;6.28;5.72;;;;;;;;;;4771836;29;32392;-64
2021/12/06 06:50:12;;;;;;;5.85;5.45;;;;;;;;;;4772073;29;32630;-64
2021/12/06 06:52:39;;;;;;;6.25;5.75;;;;;;;;;;4772043;29;32522;-64
2021/12/06 06:55:10;;;;;;;9.63;8.35;;;;;;;;;;4771886;29;32418;-65
2021/12/06 06:57:37;;;;;;;10.82;9.00;;;;;;;;;;4772955;29;32319;-65
2021/12/06 07:00:06;;;;;;;9.15;8.45;;;;;;;;;;4768536;29;32373;-65
2021/12/06 07:02:33;;;;;;;10.10;9.13;;;;;;;;;;4772405;29;32302;-65
2021/12/06 07:04:59;;;;;;;10.18;9.40;;;;;;;;;;4767930;29;32335;-65
2021/12/06 07:07:26;;;;;;;9.30;8.63;;;;;;;;;;4773055;29;34878;-66
2021/12/06 07:09:52;;;;;;;8.70;7.97;;;;;;;;;;4774486;29;32452;-66
2021/12/06 07:12:21;;;;;;;8.65;8.05;;;;;;;;;;4763318;29;32426;-66
2021/12/06 07:14:48;;;;;;;7.90;6.75;;;;;;;;;;4784642;29;32407;-66
2021/12/06 07:17:16;;;;;;;6.60;6.10;;;;;;;;;;4779727;29;32397;-66
2021/12/06 07:19:43;;;;;;;5.97;5.57;;;;;;;;;;4776555;29;32555;-66
2021/12/06 07:22:10;;;;;;;6.25;5.65;;;;;;;;;;4770355;29;32444;-65
2021/12/06 07:24:37;;;;;;;5.35;4.95;;;;;;;;;;4759732;29;32378;-65
2021/12/06 07:27:05;;;;;;;6.88;5.07;;;;;;;;;;4780924;29;32460;-69
2021/12/06 07:29:35;;;;;;;5.32;4.93;;;;;;;;;;4772793;29;35157;-68
2021/12/06 07:32:04;;;;;;;5.15;4.60;;;;;;;;;;4772658;29;32810;-68
2021/12/06 07:34:30;;;;;;;7.68;5.50;;;;;;;;;;4773873;29;32356;-68
2021/12/06 07:36:57;;;;;;;6.07;5.57;;;;;;;;;;4774566;29;32762;-67
2021/12/06 07:39:24;;;;;;;5.22;4.88;;;;;;;;;;4772420;29;31868;-67
2021/12/06 07:41:51;;;;;;;5.40;4.95;;;;;;;;;;4774524;29;32699;-67
2021/12/06 07:44:18;;;;;;;14.02;5.40;;;;;;;;;;4774939;29;32449;-68
2021/12/06 07:46:48;;;;;;;5.57;5.15;;;;;;;;;;4773703;29;32407;-68
2021/12/06 07:49:15;;;;;;;5.57;5.18;;;;;;;;;;4771718;29;32658;-67
2021/12/06 07:51:42;;;;;;;4.88;4.45;;;;;;;;;;4756423;29;35817;-68
2021/12/06 07:54:09;;;;;;;5.32;4.93;;;;;;;;;;4756048;29;32341;-68
2021/12/06 07:56:35;;;;;;;5.82;5.32;;;;;;;;;;4756161;29;32355;-66
2021/12/06 07:59:02;;;;;;;4.85;4.55;;;;;;;;;;4757562;29;32484;-67
2021/12/06 08:01:29;;;;;;;5.43;5.03;;;;;;;;;;4757312;29;32794;-68
2021/12/06 08:03:59;;;;;;;5.35;4.85;;;;;;;;;;4756416;29;32643;-66
2021/12/06 08:06:26;;;;;;;5.65;5.35;;;;;;;;;;4763226;29;32182;-68
2021/12/06 08:08:54;;;;;;;5.18;4.88;;;;;;;;;;4770866;29;32322;-66
2021/12/06 08:11:21;;;;;;;5.15;4.75;;;;;;;;;;4775779;29;32423;-66
2021/12/06 08:13:54;;;;;;;5.65;5.20;;;;;;;;;;4775065;29;35276;-66
2021/12/06 08:16:23;;;;;;;4.95;4.55;;;;;;;;;;4775001;29;32360;-67
2021/12/06 08:18:49;;;;;;;5.35;4.95;;;;;;;;;;4759768;29;32308;-66
2021/12/06 08:21:20;;;;;;;5.55;5.25;;;;;;;;;;4760728;29;32534;-67
2021/12/06 08:23:49;;;;;;;5.13;4.72;;;;;;;;;;4774627;29;34643;-67
2021/12/06 08:26:17;;;;;;;5.28;4.88;;;;;;;;;;4774975;29;32646;-67
2021/12/06 08:28:44;;;;;;;5.60;5.30;;;;;;;;;;4775187;29;32435;-67
2021/12/06 08:31:12;;;;;;;6.72;6.07;;;;;;;;;;4790107;29;32758;-68
2021/12/06 08:33:40;;;;;;;12.00;6.18;;;;;;;;;;4793557;29;32351;-66
2021/12/06 08:36:08;;;;;;;7.03;6.63;;;;;;;;;;4793354;29;35085;-67
2021/12/06 08:38:39;;;;;;;7.63;7.13;;;;;;;;;;4792407;29;32463;-67
2021/12/06 08:41:11;;;;;;;6.87;6.37;;;;;;;;;;4788037;29;32283;-67
2021/12/06 08:43:41;;;;;;;6.80;6.40;;;;;;;;;;4757414;29;32438;-67
2021/12/06 08:46:12;;;;;;;10.65;7.07;;;;;;;;;;4756614;29;35884;-67
2021/12/06 08:48:41;;;;;;;7.70;7.00;;;;;;;;;;4757218;29;32383;-68
2021/12/06 08:51:13;;;;;;;7.72;7.07;;;;;;;;;;4755684;29;32406;-68
2021/12/06 08:53:43;;;;;;;7.40;6.75;;;;;;;;;;4756534;29;32443;-68
2021/12/06 08:56:10;;;;;;;7.57;6.82;;;;;;;;;;4757574;29;32204;-68
2021/12/06 08:58:37;;;;;;;7.85;7.07;;;;;;;;;;4770189;29;34694;-67
2021/12/06 09:01:04;;;;;;;6.93;6.43;;;;;;;;;;4774092;29;32840;-68
2021/12/06 09:03:31;;;;;;;6.85;6.25;;;;;;;;;;4774318;29;32645;-68
2021/12/06 09:05:58;;;;;;;7.55;7.05;;;;;;;;;;4774708;29;32313;-68
2021/12/06 09:08:25;;;;;;;9.52;7.13;;;;;;;;;;4774104;29;34675;-67
2021/12/06 09:10:54;;;;;;;7.32;6.82;;;;;;;;;;4769591;29;32479;-68
2021/12/06 09:13:24;;;;;;;7.53;6.93;;;;;;;;;;4774422;29;32464;-68
2021/12/06 09:15:52;;;;;;;7.85;7.15;;;;;;;;;;4774130;29;32508;-68
2021/12/06 09:18:19;;;;;;;7.85;7.15;;;;;;;;;;4770765;29;32480;-68
2021/12/06 09:20:49;;;;;;;7.03;6.53;;;;;;;;;;4774723;29;35277;-68
2021/12/06 09:23:17;;;;;;;7.28;6.70;;;;;;;;;;4774415;29;32471;-68
2021/12/06 09:25:46;;;;;;;7.53;6.93;;;;;;;;;;4774605;29;32440;-68
2021/12/06 09:28:17;;;;;;;7.50;6.90;;;;;;;;;;4774823;29;32428;-68
2021/12/06 09:30:44;;;;;;;6.82;6.43;;;;;;;;;;4773472;29;34173;-68
2021/12/06 09:33:15;;;;;;;7.05;6.45;;;;;;;;;;4773905;29;32486;-67
2021/12/06 09:35:44;;;;;;;6.63;6.10;;;;;;;;;;4774532;29;32286;-67
2021/12/06 09:38:17;;;;;;;6.93;6.43;;;;;;;;;;4764389;29;32409;-68
2021/12/06 09:40:48;;;;;;;7.85;7.18;;;;;;;;;;4756670;29;32306;-69
2021/12/06 09:43:17;;;;;;;7.78;6.22;;;;;;;;;;4756509;29;35385;-67
2021/12/06 09:45:45;;;;;;;7.60;7.00;;;;;;;;;;4755356;29;32390;-67
2021/12/06 09:48:15;;;;;;;7.88;7.38;;;;;;;;;;4756084;29;32422;-68
2021/12/06 09:50:45;;;;;;;6.70;6.22;;;;;;;;;;4756280;29;32338;-66
2021/12/06 09:53:20;;;;;;;7.00;6.53;;;;;;;;;;4758096;29;34680;-66
2021/12/06 09:55:50;;;;;;;8.90;7.30;;;;;;;;;;4773229;29;32503;-66
2021/12/06 09:58:20;;;;;;;8.40;7.60;;;;;;;;;;4773995;29;32372;-66
2021/12/06 10:00:51;;;;;;;7.93;7.20;;;;;;;;;;4773376;29;32368;-66
2021/12/06 10:03:23;;;;;;;8.23;7.05;;;;;;;;;;4773856;29;32285;-68
2021/12/06 10:05:50;;;;;;;6.93;6.53;;;;;;;;;;4774014;29;35022;-68
2021/12/06 10:08:17;;;;;;;8.23;6.18;;;;;;;;;;4773583;29;32378;-66
2021/12/06 10:10:44;;;;;;;6.88;6.40;;;;;;;;;;4773779;29;32499;-67
2021/12/06 10:13:11;;;;;;;6.93;6.50;;;;;;;;;;4774180;29;32447;-66
2021/12/06 10:15:41;;;;;;;6.03;5.63;;;;;;;;;;4773319;29;34609;-67
2021/12/06 10:18:10;;;;;;;6.60;6.18;;;;;;;;;;4773964;29;32443;-67
2021/12/06 10:20:37;;;;;;;6.30;5.90;;;;;;;;;;4769258;29;32488;-68
2021/12/06 10:23:03;;;;;;;6.95;6.32;;;;;;;;;;4772365;29;32576;-67
2021/12/06 10:25:40;;;;;;;6.70;6.20;;;;;;;;;;4765904;29;32488;-68
2021/12/06 10:28:07;;;;;;;7.15;6.55;;;;;;;;;;4755401;29;34368;-68
2021/12/06 10:30:37;;;;;;;6.78;6.38;;;;;;;;;;4754449;29;32402;-68
2021/12/06 10:33:08;;;;;;;6.47;5.97;;;;;;;;;;4755685;29;32472;-68
2021/12/06 10:35:39;;;;;;;6.95;6.40;;;;;;;;;;4755773;29;32328;-68
2021/12/06 10:38:06;;;;;;;6.85;6.35;;;;;;;;;;4755675;29;35182;-68
2021/12/06 10:40:36;;;;;;;7.22;6.72;;;;;;;;;;4755511;29;32445;-67
2021/12/06 10:43:06;;;;;;;8.23;7.53;;;;;;;;;;4754430;29;32628;-67
2021/12/06 10:45:37;;;;;;;10.05;7.65;;;;;;;;;;4755391;29;32248;-68
2021/12/06 10:48:11;;;;;;;8.15;7.45;;;;;;;;;;4756039;29;32332;-68
2021/12/06 10:50:41;;;;;;;6.65;6.25;;;;;;;;;;4755703;29;34359;-67
2021/12/06 10:53:08;;;;;;;7.78;7.18;;;;;;;;;;4755988;29;32334;-68
2021/12/06 10:55:39;;;;;;;8.32;7.70;;;;;;;;;;4756076;29;33101;-68
2021/12/06 10:58:12;;;;;;;10.13;7.40;;;;;;;;;;4755878;29;32297;-68
2021/12/06 11:00:47;;;;;;;8.73;7.95;;;;;;;;;;4754694;29;34167;-68
2021/12/06 11:03:24;;;;;;;8.25;7.70;;;;;;;;;;4755087;29;32422;-67
2021/12/06 11:05:54;;;;;;;8.98;8.13;;;;;;;;;;4754994;29;32517;-68
2021/12/06 11:08:22;;;;;;;9.23;8.43;;;;;;;;;;4755227;29;32625;-68
2021/12/06 11:10:53;;;;;;;8.00;7.40;;;;;;;;;;4755163;29;32779;-68
2021/12/06 11:13:24;;;;;;;8.40;7.80;;;;;;;;;;4754411;29;35421;-68
2021/12/06 11:15:59;;;;;;;10.77;8.52;;;;;;;;;;4754962;29;32219;-68
2021/12/06 11:18:54;;;;;;;8.82;8.15;;;;;;;;;;4755234;29;32421;-67
2021/12/06 11:21:28;;;;;;;9.18;8.38;;;;;;;;;;4745823;29;32297;-68
2021/12/06 11:24:09;;;;;;;9.20;8.50;;;;;;;;;;4754987;29;34725;-67
2021/12/06 11:26:40;;;;;;;9.70;8.90;;;;;;;;;;4754824;29;32320;-67
2021/12/06 11:29:12;;;;;;;8.85;8.10;;;;;;;;;;4763718;29;32284;-66
2021/12/06 11:31:42;;;;;;;9.68;8.68;;;;;;;;;;4773454;29;32459;-67
2021/12/06 11:34:10;;;;;;;9.80;8.90;;;;;;;;;;4772121;29;32583;-67
2021/12/06 11:36:41;;;;;;;8.98;8.35;;;;;;;;;;4772833;29;34180;-66
2021/12/06 11:39:12;;;;;;;9.75;9.15;;;;;;;;;;4772008;29;32309;-68
2021/12/06 11:41:42;;;;;;;9.77;8.88;;;;;;;;;;4772708;29;32721;-67
2021/12/06 11:44:19;;;;;;;10.05;9.25;;;;;;;;;;4772855;29;32438;-67
2021/12/06 11:46:46;;;;;;;10.40;9.43;;;;;;;;;;4772925;29;35150;-68
2021/12/06 11:49:20;;;;;;;10.32;9.43;;;;;;;;;;4772362;29;32549;-67
2021/12/06 11:51:50;;;;;;;11.23;10.32;;;;;;;;;;4772336;29;32321;-68
2021/12/06 11:54:17;;;;;;;11.30;10.38;;;;;;;;;;4773538;29;32246;-68
2021/12/06 11:56:48;;;;;;;11.63;10.63;;;;;;;;;;4775795;29;32352;-68
2021/12/06 11:59:17;;;;;;;12.27;10.90;;;;;;;;;;4775187;29;34692;-68
2021/12/06 12:01:47;;;;;;;21.98;10.27;;;;;;;;;;4775296;29;32452;-69
2021/12/06 12:04:18;;;;;;;11.68;10.02;;;;;;;;;;4774414;29;32350;-68
2021/12/06 12:06:47;;;;;;;10.35;9.52;;;;;;;;;;4775304;29;32695;-67
2021/12/06 12:09:20;;;;;;;11.77;9.68;;;;;;;;;;4775009;29;34861;-67
2021/12/06 12:12:03;;;;;;;10.07;9.18;;;;;;;;;;4775264;29;32500;-68
2021/12/06 12:14:33;;;;;;;9.07;8.38;;;;;;;;;;4775167;29;32384;-69
2021/12/06 12:17:04;;;;;;;9.57;8.73;;;;;;;;;;4775621;29;32440;-68
2021/12/06 12:19:33;;;;;;;9.25;8.45;;;;;;;;;;4775480;29;32389;-68
2021/12/06 12:22:01;;;;;;;8.55;7.93;;;;;;;;;;4774476;29;34923;-68
2021/12/06 12:24:27;;;;;;;8.93;8.18;;;;;;;;;;4774863;29;32402;-69
2021/12/06 12:27:00;;;;;;;10.05;8.45;;;;;;;;;;4774651;29;32408;-66
2021/12/06 12:29:28;;;;;;;8.77;8.07;;;;;;;;;;4775092;29;32427;-67
2021/12/06 12:31:59;;;;;;;9.10;8.30;;;;;;;;;;4770753;29;34817;-67
2021/12/06 12:34:29;;;;;;;8.48;7.88;;;;;;;;;;4775381;29;32421;-69
2021/12/06 12:36:57;;;;;;;7.55;6.88;;;;;;;;;;4774922;29;32470;-67
2021/12/06 12:39:26;;;;;;;7.03;6.53;;;;;;;;;;4770459;29;32500;-68
2021/12/06 12:41:56;;;;;;;8.35;7.75;;;;;;;;;;4775056;29;32393;-67
2021/12/06 12:44:23;;;;;;;8.65;7.40;;;;;;;;;;4774457;29;35647;-67
2021/12/06 12:46:53;;;;;;;7.30;6.80;;;;;;;;;;4775045;29;32350;-68
2021/12/06 12:49:24;;;;;;;7.65;7.05;;;;;;;;;;4773972;29;32420;-67
2021/12/06 12:51:55;;;;;;;6.80;6.22;;;;;;;;;;4775056;29;32328;-68
2021/12/06 12:54:27;;;;;;;7.28;6.68;;;;;;;;;;4774871;29;35629;-67
2021/12/06 12:56:57;;;;;;;7.80;7.20;;;;;;;;;;4774885;29;32355;-67
2021/12/06 12:59:31;;;;;;;7.80;7.20;;;;;;;;;;4774751;29;32462;-67
2021/12/06 13:02:29;;;;;;;7.55;6.95;;;;;;;;;;4773222;29;32428;-67
2021/12/06 13:05:21;;;;;;;8.23;7.63;;;;;;;;;;4772848;29;32748;-68
2021/12/06 13:08:08;;;;;;;8.60;7.90;;;;;;;;;;4756928;29;34360;-68
2021/12/06 13:10:40;;;;;;;8.63;8.00;;;;;;;;;;4756797;29;32342;-68
2021/12/06 13:13:16;;;;;;;8.77;8.18;;;;;;;;;;4756468;29;32559;-68
2021/12/06 13:22:05;;;;;;;7.13;6.63;;;;;;;;;;4756151;29;32333;-68
2021/12/06 13:24:49;;;;;;;8.02;7.53;;;;;;;;;;4756653;29;32565;-68
2021/12/06 13:27:40;;;;;;;9.45;6.93;;;;;;;;;;4756272;29;32382;-68
2021/12/06 13:30:20;;;;;;;8.23;7.63;;;;;;;;;;4756977;29;32459;-68
2021/12/06 13:32:51;;;;;;;7.82;7.22;;;;;;;;;;4756441;29;34545;-68
2021/12/06 13:35:31;;;;;;;12.50;7.73;;;;;;;;;;4756284;29;32449;-68
2021/12/06 13:38:12;;;;;;;9.93;7.95;;;;;;;;;;4756075;29;32437;-68
2021/12/06 13:41:09;;;;;;;7.97;7.17;;;;;;;;;;4764090;29;32487;-68
2021/12/06 13:43:41;;;;;;;7.88;7.28;;;;;;;;;;4773755;29;36456;-67
2021/12/06 13:46:11;;;;;;;8.35;7.07;;;;;;;;;;4774295;29;32713;-68
2021/12/06 13:48:43;;;;;;;6.93;6.43;;;;;;;;;;4769302;29;33375;-69
2021/12/06 13:51:42;;;;;;;8.23;7.63;;;;;;;;;;4773935;29;32481;-69
2021/12/06 13:54:13;;;;;;;8.55;7.85;;;;;;;;;;4771095;29;32378;-68
2021/12/06 13:56:51;;;;;;;13.80;8.97;;;;;;;;;;4773708;29;34179;-68
2021/12/06 13:59:24;;;;;;;14.65;10.43;;;;;;;;;;4773446;29;32443;-69
2021/12/06 14:01:52;;;;;;;14.18;9.77;;;;;;;;;;4773894;29;32487;-68
2021/12/06 14:04:22;;;;;;;15.18;10.60;;;;;;;;;;4772816;29;32354;-68
2021/12/06 14:06:52;;;;;;;11.00;9.75;;;;;;;;;;4774020;29;35010;-68
2021/12/06 14:09:25;;;;;;;10.27;8.95;;;;;;;;;;4773812;29;32493;-69
2021/12/06 14:11:54;;;;;;;12.65;9.52;;;;;;;;;;4773870;29;32543;-68
2021/12/06 14:14:24;;;;;;;17.65;10.02;;;;;;;;;;4774034;29;32435;-69
2021/12/06 14:16:51;;;;;;;10.80;9.55;;;;;;;;;;4774619;29;32453;-68
2021/12/06 14:19:23;;;;;;;9.82;8.70;;;;;;;;;;4773392;29;35760;-68
2021/12/06 14:21:53;;;;;;;13.75;9.50;;;;;;;;;;4773790;29;32506;-67
2021/12/06 14:24:22;;;;;;;15.13;9.52;;;;;;;;;;4773755;29;32428;-69
2021/12/06 14:26:50;;;;;;;12.80;9.20;;;;;;;;;;4773671;29;32308;-68
2021/12/06 14:29:22;;;;;;;17.30;9.77;;;;;;;;;;4773636;29;35818;-68
2021/12/06 14:31:51;;;;;;;12.00;8.52;;;;;;;;;;4773844;29;32732;-67
2021/12/06 14:34:19;;;;;;;8.85;8.00;;;;;;;;;;4773452;29;32411;-67
2021/12/06 14:36:45;;;;;;;9.40;8.55;;;;;;;;;;4773918;29;32905;-68
2021/12/06 14:39:16;;;;;;;9.95;9.05;;;;;;;;;;4773974;29;32750;-67
2021/12/06 14:41:53;;;;;;;9.20;8.27;;;;;;;;;;4766088;29;35294;-68
2021/12/06 14:44:48;;;;;;;9.50;8.50;;;;;;;;;;4755594;29;32308;-68
2021/12/06 14:47:27;;;;;;;15.07;8.05;;;;;;;;;;4752544;29;32207;-67
2021/12/06 14:49:56;;;;;;;12.20;8.38;;;;;;;;;;4772485;29;32417;-67
2021/12/06 14:52:32;;;;;;;9.10;8.25;;;;;;;;;;4769070;29;34230;-67
2021/12/06 14:57:59;;;;;;;9.18;8.18;;;;;;;;;;4773516;29;32437;-67
2021/12/06 15:00:32;;;;;;;12.90;8.05;;;;;;;;;;4773268;29;32271;-69
2021/12/06 15:02:59;;;;;;;13.50;8.65;;;;;;;;;;4772976;29;32499;-68
2021/12/06 15:05:30;;;;;;;10.65;8.57;;;;;;;;;;4773501;29;34305;-69
2021/12/06 15:08:00;;;;;;;9.33;8.13;;;;;;;;;;4773661;29;33074;-68
2021/12/06 15:10:28;;;;;;;8.50;7.75;;;;;;;;;;4772641;29;32436;-68
2021/12/06 15:12:57;;;;;;;17.20;9.00;;;;;;;;;;4773116;29;32306;-69
2021/12/06 15:15:32;;;;;;;9.63;8.30;;;;;;;;;;4772587;29;35624;-68